Time;durP1;ratioP1;P1;durP2;ratioP2;P2;SDS_P1;SDS_P2;PMS_P1;PMS_P2;Temp;Humidity;BMP_temperature;BMP_pressure;BME280_temperature;BME280_humidity;BME280_pressure;Samples;Min_cycle;Max_cycle;Signal;HPM_P1;HPM_P2
2022/01/09 00:00:19;;;;;;;;;;;6.50;99.90;;;;;;5030912;28;19917;-75
2022/01/09 00:02:45;;;;;;;;;;;6.50;99.90;;;;;;5028881;28;20030;-75
2022/01/09 00:05:11;;;;;;;;;;;6.40;99.90;;;;;;5024737;28;20368;-78
2022/01/09 00:07:37;;;;;;;;;;;6.40;99.90;;;;;;5029473;28;20000;-76
2022/01/09 00:10:03;;;;;;;;;;;6.40;99.90;;;;;;5029095;28;20380;-78
2022/01/09 00:12:29;;;;;;;;;;;6.30;99.90;;;;;;5030113;28;19932;-75
2022/01/09 00:14:56;;;;;;;;;;;6.20;99.90;;;;;;5031558;28;19913;-75
2022/01/09 00:17:21;;;;;;;;;;;6.40;99.90;;;;;;5032355;28;19912;-77
2022/01/09 00:19:47;;;;;;;;;;;6.30;99.90;;;;;;5033566;28;20279;-77
2022/01/09 00:22:17;;;;;;;;;;;6.30;99.90;;;;;;5033555;28;19913;-74
2022/01/09 00:24:43;;;;;;;;;;;4.50;99.90;;;;;;5031890;28;19913;-74
2022/01/09 00:27:10;;;;;;;;;;;4.00;99.90;;;;;;5031995;28;20007;-74
2022/01/09 00:29:35;;;;;;;;;;;3.80;99.90;;;;;;5031858;28;20344;-74
2022/01/09 00:32:01;;;;;;;;;;;3.70;99.90;;;;;;5033600;28;20376;-74
2022/01/09 00:34:27;;;;;;;;;;;3.50;99.90;;;;;;5034504;28;19913;-74
2022/01/09 00:36:52;;;;;;;;;;;3.40;99.90;;;;;;5032053;28;19920;-74
2022/01/09 00:39:18;;;;;;;;;;;3.40;99.90;;;;;;5034522;28;19920;-74
2022/01/09 00:41:45;;;;;;;;;;;3.40;99.90;;;;;;5033160;28;19928;-74
2022/01/09 00:44:10;;;;;;;;;;;3.50;99.90;;;;;;5032775;28;19987;-75
2022/01/09 00:46:36;;;;;;;;;;;3.50;99.90;;;;;;5035720;28;19913;-74
2022/01/09 00:49:02;;;;;;;;;;;3.50;99.90;;;;;;5033255;28;19991;-75
2022/01/09 00:51:28;;;;;;;;;;;3.50;99.90;;;;;;5033230;28;19917;-75
2022/01/09 00:53:54;;;;;;;;;;;3.60;99.90;;;;;;5035931;28;19940;-75
2022/01/09 00:56:19;;;;;;;;;;;3.60;99.90;;;;;;5033354;28;19939;-75
2022/01/09 00:58:45;;;;;;;;;;;3.60;99.90;;;;;;5035583;28;19925;-75
2022/01/09 01:01:11;;;;;;;;;;;3.50;99.90;;;;;;5033746;28;20008;-75
2022/01/09 01:03:36;;;;;;;;;;;3.60;99.90;;;;;;5033176;28;19913;-75
2022/01/09 01:06:02;;;;;;;;;;;3.50;99.90;;;;;;5032394;28;20048;-75
2022/01/09 01:08:28;;;;;;;;;;;3.60;99.90;;;;;;5033061;28;19919;-75
2022/01/09 01:10:54;;;;;;;;;;;3.60;99.90;;;;;;5034681;28;19913;-75
2022/01/09 01:13:20;;;;;;;;;;;3.50;99.90;;;;;;5033865;28;19944;-75
2022/01/09 01:15:46;;;;;;;;;;;3.60;99.90;;;;;;5034518;28;20007;-75
2022/01/09 01:18:19;;;;;;;;;;;3.70;99.90;;;;;;5032071;28;19960;-76
2022/01/09 01:20:48;;;;;;;;;;;3.70;99.90;;;;;;5034272;28;19939;-75
2022/01/09 01:23:14;;;;;;;;;;;3.70;99.90;;;;;;5036038;28;19921;-76
2022/01/09 01:25:40;;;;;;;;;;;3.70;99.90;;;;;;5035860;28;20257;-75
2022/01/09 01:28:06;;;;;;;;;;;3.70;99.90;;;;;;5034894;28;19976;-76
2022/01/09 01:30:32;;;;;;;;;;;3.70;99.90;;;;;;5034327;28;19963;-76
2022/01/09 01:32:58;;;;;;;;;;;3.70;99.90;;;;;;5033500;28;19924;-76
2022/01/09 01:35:24;;;;;;;;;;;;;;;;;;5033337;28;19913;-75
2022/01/09 01:37:50;;;;;;;;;;;3.90;99.90;;;;;;5033558;28;19913;-76
2022/01/09 01:40:17;;;;;;;;;;;3.80;99.90;;;;;;5032975;28;20051;-75
2022/01/09 01:42:43;;;;;;;;;;;;;;;;;;5032628;28;19913;-76
2022/01/09 01:45:10;;;;;;;;;;;4.10;99.90;;;;;;5032298;28;20276;-76
2022/01/09 01:47:36;;;;;;;;;;;4.10;99.90;;;;;;5033671;28;19920;-76
2022/01/09 01:50:03;;;;;;;;;;;4.10;99.90;;;;;;5032902;28;19917;-76
2022/01/09 01:52:35;;;;;;;;;;;4.00;99.90;;;;;;5033747;28;19917;-76
2022/01/09 01:55:00;;;;;;;;;;;4.10;99.90;;;;;;5032405;28;19920;-76
2022/01/09 01:57:27;;;;;;;;;;;4.00;99.90;;;;;;5033655;28;19917;-76
2022/01/09 01:59:54;;;;;;;;;;;3.90;99.90;;;;;;5033068;28;20003;-76
2022/01/09 02:02:23;;;;;;;;;;;3.90;99.90;;;;;;5032275;28;19913;-76
2022/01/09 02:04:51;;;;;;;;;;;4.00;99.90;;;;;;5031740;28;20368;-75
2022/01/09 02:07:16;;;;;;;;;;;4.10;99.90;;;;;;5033032;28;19913;-76
2022/01/09 02:09:43;;;;;;;;;;;4.00;99.90;;;;;;5033176;28;19948;-76
2022/01/09 02:12:09;;;;;;;;;;;4.00;99.90;;;;;;5032735;28;19917;-76
2022/01/09 02:14:35;;;;;;;;;;;4.00;99.90;;;;;;5032871;28;19917;-76
2022/01/09 02:17:01;;;;;;;;;;;4.10;99.90;;;;;;5032885;28;19940;-75
2022/01/09 02:19:27;;;;;;;;;;;;;;;;;;5031115;28;20353;-76
2022/01/09 02:21:54;;;;;;;;;;;4.10;99.90;;;;;;5031027;28;19978;-75
2022/01/09 02:24:23;;;;;;;;;;;4.10;99.90;;;;;;5032693;28;20284;-75
2022/01/09 02:26:49;;;;;;;;;;;3.70;99.90;;;;;;5031260;28;20287;-74
2022/01/09 02:29:15;;;;;;;;;;;3.70;99.90;;;;;;5032854;28;19925;-74
2022/01/09 02:31:42;;;;;;;;;;;3.50;99.90;;;;;;5034427;28;19921;-74
2022/01/09 02:34:08;;;;;;;;;;;3.50;99.90;;;;;;5030553;28;19917;-74
2022/01/09 02:36:34;;;;;;;;;;;3.30;99.90;;;;;;5032850;28;19939;-74
2022/01/09 02:39:00;;;;;;;;;;;3.10;99.90;;;;;;5032314;28;20010;-74
2022/01/09 02:41:26;;;;;;;;;;;3.20;99.90;;;;;;5032612;28;19921;-75
2022/01/09 02:43:51;;;;;;;;;;;3.30;99.90;;;;;;5031204;28;19920;-75
2022/01/09 02:46:33;;;;;;;;;;;3.40;99.90;;;;;;5031678;28;19913;-75
2022/01/09 02:49:03;;;;;;;;;;;3.40;99.90;;;;;;5030359;28;20284;-75
2022/01/09 02:51:29;;;;;;;;;;;3.50;99.90;;;;;;5032490;28;19966;-75
2022/01/09 02:54:08;;;;;;;;;;;3.50;99.90;;;;;;5033879;28;19913;-75
2022/01/09 02:56:33;;;;;;;;;;;3.50;99.90;;;;;;5031080;28;20008;-76
2022/01/09 02:58:59;;;;;;;;;;;3.60;99.90;;;;;;5032226;28;20004;-75
2022/01/09 03:01:25;;;;;;;;;;;3.60;99.90;;;;;;5030558;28;20368;-75
2022/01/09 03:03:50;;;;;;;;;;;3.60;99.90;;;;;;5032711;28;19913;-76
2022/01/09 03:06:16;;;;;;;;;;;3.70;99.90;;;;;;5032514;28;19921;-76
2022/01/09 03:08:41;;;;;;;;;;;3.80;99.90;;;;;;5031796;28;19948;-76
2022/01/09 03:11:07;;;;;;;;;;;3.80;99.90;;;;;;5032553;28;19924;-76
2022/01/09 03:13:33;;;;;;;;;;;3.90;99.90;;;;;;5032830;28;19966;-75
2022/01/09 03:15:58;;;;;;;;;;;3.80;99.90;;;;;;5030604;28;20383;-76
2022/01/09 03:18:24;;;;;;;;;;;3.80;99.90;;;;;;5030851;28;19943;-76
2022/01/09 03:20:49;;;;;;;;;;;3.90;99.90;;;;;;5029661;28;19967;-75
2022/01/09 03:23:15;;;;;;;;;;;3.90;99.90;;;;;;5032459;28;20008;-74
2022/01/09 03:25:41;;;;;;;;;;;4.00;99.90;;;;;;5031616;28;19913;-76
2022/01/09 03:28:06;;;;;;;;;;;4.00;99.90;;;;;;5031490;28;19928;-76
2022/01/09 03:30:32;;;;;;;;;;;4.00;99.90;;;;;;5031568;28;19920;-76
2022/01/09 03:32:57;;;;;;;;;;;4.00;99.90;;;;;;5031734;28;19917;-76
2022/01/09 03:35:24;;;;;;;;;;;4.00;99.90;;;;;;5031168;28;19924;-76
2022/01/09 03:37:50;;;;;;;;;;;3.90;99.90;;;;;;5031419;28;19913;-76
2022/01/09 03:40:18;;;;;;;;;;;3.90;99.90;;;;;;5031998;28;20253;-76
2022/01/09 03:42:44;;;;;;;;;;;3.90;99.90;;;;;;5030396;28;19917;-76
2022/01/09 03:45:10;;;;;;;;;;;3.90;99.90;;;;;;5029780;28;19913;-75
2022/01/09 03:47:36;;;;;;;;;;;3.90;99.90;;;;;;5030444;28;19920;-76
2022/01/09 03:50:07;;;;;;;;;;;3.80;99.90;;;;;;5030786;28;19952;-76
2022/01/09 03:52:34;;;;;;;;;;;3.80;99.90;;;;;;5029902;28;19913;-76
2022/01/09 03:54:59;;;;;;;;;;;3.80;99.90;;;;;;5033432;28;20372;-76
2022/01/09 03:57:25;;;;;;;;;;;3.80;99.90;;;;;;5032167;28;19913;-76
2022/01/09 03:59:50;;;;;;;;;;;3.80;99.90;;;;;;5031295;28;19913;-76
2022/01/09 04:02:16;;;;;;;;;;;3.80;99.90;;;;;;5030139;28;20257;-76
2022/01/09 04:04:42;;;;;;;;;;;3.80;99.90;;;;;;5029157;28;19924;-76
2022/01/09 04:07:07;;;;;;;;;;;3.80;99.90;;;;;;5031125;28;20378;-76
2022/01/09 04:09:40;;;;;;;;;;;3.80;99.90;;;;;;5029478;28;20371;-76
2022/01/09 04:12:18;;;;;;;;;;;3.90;99.90;;;;;;5031149;28;19918;-76
2022/01/09 04:14:47;;;;;;;;;;;3.90;99.90;;;;;;5031638;28;19999;-76
2022/01/09 04:17:22;;;;;;;;;;;3.80;99.90;;;;;;5030297;28;19913;-76
2022/01/09 04:19:48;;;;;;;;;;;3.80;99.90;;;;;;5032553;28;19913;-76
2022/01/09 04:22:14;;;;;;;;;;;;;;;;;;5032661;28;19925;-75
2022/01/09 04:24:39;;;;;;;;;;;3.50;99.90;;;;;;5030820;28;19913;-74
2022/01/09 04:27:05;;;;;;;;;;;2.90;99.90;;;;;;5029596;28;20003;-74
2022/01/09 04:29:31;;;;;;;;;;;2.80;99.90;;;;;;5029649;28;19925;-74
2022/01/09 04:31:56;;;;;;;;;;;3.00;99.90;;;;;;5029551;28;19960;-74
2022/01/09 04:34:22;;;;;;;;;;;3.10;99.90;;;;;;5029462;28;20364;-74
2022/01/09 04:36:47;;;;;;;;;;;3.20;99.90;;;;;;5030288;28;19957;-74
2022/01/09 04:39:13;;;;;;;;;;;3.20;99.90;;;;;;5032763;28;19913;-74
2022/01/09 04:41:39;;;;;;;;;;;3.20;99.90;;;;;;5031942;28;20335;-74
2022/01/09 04:44:04;;;;;;;;;;;3.10;99.90;;;;;;5031008;28;19917;-74
2022/01/09 04:46:40;;;;;;;;;;;3.10;99.90;;;;;;5031150;28;20008;-74
2022/01/09 04:49:06;;;;;;;;;;;3.00;99.90;;;;;;5031659;28;19925;-75
2022/01/09 04:51:31;;;;;;;;;;;2.90;99.90;;;;;;5031167;28;19924;-75
2022/01/09 04:53:57;;;;;;;;;;;2.90;99.90;;;;;;5031645;28;20296;-74
2022/01/09 04:56:23;;;;;;;;;;;3.00;99.90;;;;;;5031013;28;19921;-74
2022/01/09 04:58:48;;;;;;;;;;;3.20;99.90;;;;;;5030729;28;20059;-75
2022/01/09 05:01:14;;;;;;;;;;;3.10;99.90;;;;;;5031062;28;19917;-75
2022/01/09 05:03:39;;;;;;;;;;;3.10;99.90;;;;;;5032788;28;19914;-75
2022/01/09 05:06:05;;;;;;;;;;;3.20;99.90;;;;;;5034034;28;19921;-75
2022/01/09 05:08:30;;;;;;;;;;;3.10;99.90;;;;;;5034363;28;20020;-75
2022/01/09 05:10:56;;;;;;;;;;;3.10;99.90;;;;;;5034276;28;19939;-75
2022/01/09 05:13:22;;;;;;;;;;;3.10;99.90;;;;;;5034706;28;20354;-75
2022/01/09 05:15:48;;;;;;;;;;;3.10;99.90;;;;;;5033120;28;20257;-75
2022/01/09 05:18:14;;;;;;;;;;;3.10;99.90;;;;;;5032541;28;19917;-75
2022/01/09 05:20:41;;;;;;;;;;;3.10;99.90;;;;;;5033998;28;19956;-75
2022/01/09 05:23:07;;;;;;;;;;;3.10;99.90;;;;;;5032645;28;20287;-75
2022/01/09 05:25:32;;;;;;;;;;;3.10;99.90;;;;;;5034152;28;19920;-76
2022/01/09 05:27:58;;;;;;;;;;;3.20;99.90;;;;;;5032851;28;19967;-75
2022/01/09 05:30:24;;;;;;;;;;;3.20;99.90;;;;;;5033880;28;20364;-75
2022/01/09 05:32:49;;;;;;;;;;;3.10;99.90;;;;;;5031731;28;19913;-75
2022/01/09 05:35:15;;;;;;;;;;;3.20;99.90;;;;;;5034828;28;20004;-76
2022/01/09 05:37:41;;;;;;;;;;;3.20;99.90;;;;;;5033595;28;19983;-75
2022/01/09 05:40:07;;;;;;;;;;;3.30;99.90;;;;;;5033581;28;20271;-75
2022/01/09 05:42:32;;;;;;;;;;;3.20;99.90;;;;;;5032743;28;20320;-75
2022/01/09 05:44:58;;;;;;;;;;;3.30;99.90;;;;;;5033755;28;19999;-76
2022/01/09 05:47:23;;;;;;;;;;;3.40;99.90;;;;;;5032107;28;19913;-76
2022/01/09 05:49:49;;;;;;;;;;;3.40;99.90;;;;;;5032561;28;20078;-75
2022/01/09 05:52:14;;;;;;;;;;;3.30;99.90;;;;;;5034508;28;19917;-75
2022/01/09 05:54:40;;;;;;;;;;;3.30;99.90;;;;;;5033670;28;19917;-75
2022/01/09 05:57:06;;;;;;;;;;;3.40;99.90;;;;;;5034141;28;20000;-75
2022/01/09 05:59:31;;;;;;;;;;;3.30;99.90;;;;;;5033348;28;19913;-75
2022/01/09 06:01:57;;;;;;;;;;;3.40;99.90;;;;;;5032771;28;20474;-76
2022/01/09 06:04:23;;;;;;;;;;;3.40;99.90;;;;;;5032524;28;19967;-75
2022/01/09 06:06:52;;;;;;;;;;;3.40;99.90;;;;;;5031807;28;20265;-76
2022/01/09 06:09:17;;;;;;;;;;;3.40;99.90;;;;;;5032229;28;19921;-76
2022/01/09 06:11:43;;;;;;;;;;;3.30;99.90;;;;;;5033500;28;19944;-76
2022/01/09 06:14:09;;;;;;;;;;;3.40;99.90;;;;;;5014759;28;19921;-75
2022/01/09 06:16:34;;;;;;;;;;;3.40;99.90;;;;;;5013585;28;19913;-75
2022/01/09 06:19:00;;;;;;;;;;;3.40;99.90;;;;;;5015192;28;20504;-76
2022/01/09 06:21:28;;;;;;;;;;;3.40;99.90;;;;;;5015282;28;20382;-76
2022/01/09 06:23:54;;;;;;;;;;;3.40;99.90;;;;;;5013900;28;20000;-76
2022/01/09 06:26:20;;;;;;;;;;;3.30;99.90;;;;;;5015205;28;19914;-75
2022/01/09 06:28:46;;;;;;;;;;;3.30;99.90;;;;;;5014757;28;19984;-75
2022/01/09 06:31:11;;;;;;;;;;;3.30;99.90;;;;;;5015205;28;19921;-76
2022/01/09 06:33:37;;;;;;;;;;;3.30;99.90;;;;;;5036796;28;19920;-75
2022/01/09 06:36:03;;;;;;;;;;;3.30;99.90;;;;;;5033323;28;20276;-75
2022/01/09 06:38:28;;;;;;;;;;;3.30;99.90;;;;;;5034652;28;19913;-75
2022/01/09 06:40:54;;;;;;;;;;;3.30;99.90;;;;;;5034506;28;20380;-75
2022/01/09 06:43:19;;;;;;;;;;;3.30;99.90;;;;;;5034220;28;19917;-75
2022/01/09 06:45:45;;;;;;;;;;;3.30;99.90;;;;;;5034253;28;19924;-75
2022/01/09 06:48:11;;;;;;;;;;;3.30;99.90;;;;;;5034412;28;19925;-75
2022/01/09 06:50:36;;;;;;;;;;;3.30;99.90;;;;;;5034459;28;19946;-76
2022/01/09 06:53:02;;;;;;;;;;;3.30;99.90;;;;;;5032764;28;20080;-75
2022/01/09 06:55:27;;;;;;;;;;;3.30;99.90;;;;;;5034104;28;19924;-75
2022/01/09 06:57:54;;;;;;;;;;;3.30;99.90;;;;;;5034121;28;20433;-75
2022/01/09 07:00:20;;;;;;;;;;;3.30;99.90;;;;;;5032936;28;19909;-76
2022/01/09 07:02:46;;;;;;;;;;;3.30;99.90;;;;;;5032721;28;19943;-75
2022/01/09 07:05:12;;;;;;;;;;;3.30;99.90;;;;;;5033923;28;20420;-75
2022/01/09 07:07:38;;;;;;;;;;;3.40;99.90;;;;;;5032627;28;19948;-75
2022/01/09 07:10:04;;;;;;;;;;;3.40;99.90;;;;;;5034014;28;19971;-76
2022/01/09 07:12:30;;;;;;;;;;;3.40;99.90;;;;;;5032648;28;19917;-75
2022/01/09 07:14:55;;;;;;;;;;;3.40;99.90;;;;;;5032659;28;20343;-75
2022/01/09 07:17:21;;;;;;;;;;;3.40;99.90;;;;;;5032783;28;19920;-75
2022/01/09 07:19:46;;;;;;;;;;;3.30;99.90;;;;;;5033868;28;20360;-75
2022/01/09 07:22:12;;;;;;;;;;;3.40;99.90;;;;;;5033884;28;19999;-75
2022/01/09 07:24:38;;;;;;;;;;;3.40;99.90;;;;;;5033874;28;19975;-76
2022/01/09 07:27:03;;;;;;;;;;;3.40;99.90;;;;;;5032389;28;19917;-76
2022/01/09 07:29:29;;;;;;;;;;;3.50;99.90;;;;;;5032464;28;20280;-76
2022/01/09 07:31:55;;;;;;;;;;;3.50;99.90;;;;;;5033682;28;20015;-76
2022/01/09 07:34:20;;;;;;;;;;;3.50;99.90;;;;;;5032184;28;19920;-76
2022/01/09 07:36:46;;;;;;;;;;;3.50;99.90;;;;;;5032331;28;19913;-75
2022/01/09 07:39:12;;;;;;;;;;;3.60;99.90;;;;;;5033542;28;19913;-75
2022/01/09 07:41:38;;;;;;;;;;;3.50;99.90;;;;;;5033416;28;19959;-76
2022/01/09 07:44:04;;;;;;;;;;;3.50;99.90;;;;;;5031715;28;19982;-75
2022/01/09 07:46:29;;;;;;;;;;;3.50;99.90;;;;;;5032968;28;20380;-75
2022/01/09 07:48:55;;;;;;;;;;;3.50;99.90;;;;;;5032878;28;19975;-75
2022/01/09 07:51:21;;;;;;;;;;;3.50;99.90;;;;;;5031891;28;19919;-75
2022/01/09 07:53:46;;;;;;;;;;;3.50;99.90;;;;;;5033356;28;20357;-75
2022/01/09 07:56:12;;;;;;;;;;;3.40;99.90;;;;;;5033254;28;19913;-75
2022/01/09 07:58:38;;;;;;;;;;;3.20;99.90;;;;;;5033384;28;19913;-76
2022/01/09 08:01:04;;;;;;;;;;;3.20;99.90;;;;;;5032038;28;20388;-75
2022/01/09 08:03:29;;;;;;;;;;;3.20;99.90;;;;;;5033375;28;20442;-75
2022/01/09 08:05:55;;;;;;;;;;;3.10;99.90;;;;;;5031775;28;19932;-75
2022/01/09 08:08:20;;;;;;;;;;;3.20;99.90;;;;;;5031923;28;19924;-76
2022/01/09 08:10:46;;;;;;;;;;;3.20;99.90;;;;;;5032014;28;20292;-75
2022/01/09 08:13:11;;;;;;;;;;;3.20;99.90;;;;;;5033388;28;19935;-76
2022/01/09 08:15:37;;;;;;;;;;;3.20;99.90;;;;;;5031948;28;19922;-76
2022/01/09 08:18:03;;;;;;;;;;;3.20;99.90;;;;;;5032023;28;19913;-76
2022/01/09 08:20:28;;;;;;;;;;;3.20;99.90;;;;;;5033341;28;19913;-75
2022/01/09 08:22:54;;;;;;;;;;;3.40;99.90;;;;;;5033215;28;19913;-76
2022/01/09 08:25:20;;;;;;;;;;;3.40;99.90;;;;;;5015425;28;19968;-75
2022/01/09 08:27:46;;;;;;;;;;;3.40;99.90;;;;;;5012005;28;20024;-76
2022/01/09 08:30:12;;;;;;;;;;;3.40;99.90;;;;;;5011479;28;19923;-75
2022/01/09 08:32:38;;;;;;;;;;;3.50;99.90;;;;;;5011356;28;19979;-76
2022/01/09 08:35:05;;;;;;;;;;;3.60;99.90;;;;;;5011412;28;20396;-76
2022/01/09 08:37:31;;;;;;;;;;;3.60;99.90;;;;;;5027457;28;19920;-76
2022/01/09 08:39:56;;;;;;;;;;;3.50;99.90;;;;;;5030250;28;19918;-75
2022/01/09 08:42:22;;;;;;;;;;;3.60;99.90;;;;;;5015974;28;20427;-76
2022/01/09 08:44:48;;;;;;;;;;;3.60;99.90;;;;;;5032277;28;19920;-76
2022/01/09 08:47:13;;;;;;;;;;;3.60;99.90;;;;;;5036659;28;19917;-76
2022/01/09 08:49:39;;;;;;;;;;;3.60;99.90;;;;;;5032886;28;19921;-76
2022/01/09 08:52:05;;;;;;;;;;;3.60;99.90;;;;;;5033396;28;19917;-75
2022/01/09 08:54:31;;;;;;;;;;;3.60;99.90;;;;;;5035198;28;19947;-75
2022/01/09 08:56:57;;;;;;;;;;;3.70;99.90;;;;;;5035728;28;19921;-75
2022/01/09 08:59:22;;;;;;;;;;;3.70;99.90;;;;;;5035802;28;19917;-76
2022/01/09 09:01:48;;;;;;;;;;;3.70;99.90;;;;;;5033766;28;20056;-75
2022/01/09 09:04:14;;;;;;;;;;;3.70;99.90;;;;;;5034497;28;20284;-75
2022/01/09 09:06:40;;;;;;;;;;;3.80;99.90;;;;;;5033987;28;19917;-75
2022/01/09 09:09:07;;;;;;;;;;;3.80;99.90;;;;;;5033575;28;19921;-75
2022/01/09 09:11:32;;;;;;;;;;;3.90;99.90;;;;;;5032458;28;19917;-75
2022/01/09 09:13:58;;;;;;;;;;;3.80;99.90;;;;;;5033331;28;20012;-75
2022/01/09 09:16:24;;;;;;;;;;;3.70;99.90;;;;;;5033991;28;19920;-74
2022/01/09 09:18:50;;;;;;;;;;;3.70;99.90;;;;;;5033621;28;19913;-75
2022/01/09 09:21:16;;;;;;;;;;;3.70;99.90;;;;;;5033498;28;19920;-74
2022/01/09 09:23:42;;;;;;;;;;;3.70;99.90;;;;;;5032840;28;19914;-76
2022/01/09 09:26:09;;;;;;;;;;;3.50;99.90;;;;;;5034538;28;19982;-75
2022/01/09 09:28:34;;;;;;;;;;;4.00;99.90;;;;;;5033944;28;19996;-75
2022/01/09 09:31:00;;;;;;;;;;;4.20;99.90;;;;;;5032537;28;20388;-75
2022/01/09 09:33:25;;;;;;;;;;;3.90;99.90;;;;;;5018775;28;19917;-75
2022/01/09 09:35:52;;;;;;;;;;;3.70;99.90;;;;;;5028014;28;19968;-76
2022/01/09 09:38:17;;;;;;;;;;;3.60;99.90;;;;;;5028709;28;19917;-76
2022/01/09 09:40:43;;;;;;;;;;;3.40;99.90;;;;;;5013613;28;19922;-75
2022/01/09 09:43:09;;;;;;;;;;;3.50;99.90;;;;;;5012832;28;19921;-75
2022/01/09 09:45:34;;;;;;;;;;;3.50;99.90;;;;;;5028052;28;19917;-76
2022/01/09 09:48:00;;;;;;;;;;;3.50;99.90;;;;;;5010350;28;19913;-75
2022/01/09 09:50:26;;;;;;;;;;;3.50;99.90;;;;;;5027051;28;19913;-76
2022/01/09 09:52:52;;;;;;;;;;;3.50;99.90;;;;;;5027915;28;20365;-76
2022/01/09 09:55:18;;;;;;;;;;;3.60;99.90;;;;;;5021375;28;20030;-76
2022/01/09 09:57:44;;;;;;;;;;;3.80;99.90;;;;;;5032989;28;20383;-77
2022/01/09 10:00:11;;;;;;;;;;;4.00;99.90;;;;;;5033133;28;19952;-76
2022/01/09 10:02:45;;;;;;;;;;;4.00;99.90;;;;;;5032236;28;20253;-76
2022/01/09 10:05:12;;;;;;;;;;;4.00;99.90;;;;;;5031305;28;19990;-76
2022/01/09 10:07:37;;;;;;;;;;;4.10;99.90;;;;;;5031560;28;20006;-77
2022/01/09 10:10:05;;;;;;;;;;;4.10;99.90;;;;;;5031248;28;19968;-77
2022/01/09 10:12:32;;;;;;;;;;;4.10;99.90;;;;;;5032096;28;19948;-77
2022/01/09 10:14:59;;;;;;;;;;;4.10;99.90;;;;;;5030751;28;19917;-77
2022/01/09 10:17:24;;;;;;;;;;;4.10;99.90;;;;;;5033014;28;19986;-76
2022/01/09 10:19:52;;;;;;;;;;;4.10;99.90;;;;;;5031877;28;20400;-76
2022/01/09 10:22:21;;;;;;;;;;;4.00;99.90;;;;;;5032183;28;20368;-76
2022/01/09 10:24:46;;;;;;;;;;;4.00;99.90;;;;;;5032632;28;19917;-76
2022/01/09 10:27:25;;;;;;;;;;;4.00;99.90;;;;;;5033899;28;19984;-76
2022/01/09 10:29:51;;;;;;;;;;;3.90;99.90;;;;;;5032010;28;19964;-75
2022/01/09 10:32:17;;;;;;;;;;;4.00;99.90;;;;;;5030504;28;19953;-76
2022/01/09 10:34:42;;;;;;;;;;;4.10;99.90;;;;;;5031897;28;19924;-76
2022/01/09 10:37:16;;;;;;;;;;;4.20;99.90;;;;;;5031648;28;19921;-77
2022/01/09 10:39:43;;;;;;;;;;;4.20;99.90;;;;;;5031734;28;19986;-76
2022/01/09 10:42:12;;;;;;;;;;;4.30;99.90;;;;;;5030544;28;20327;-76
2022/01/09 10:44:39;;;;;;;;;;;4.30;99.90;;;;;;5032747;28;19952;-76
2022/01/09 10:47:05;;;;;;;;;;;;;;;;;;5031671;28;20287;-77
2022/01/09 10:49:43;;;;;;;;;;;4.50;99.90;;;;;;5031818;28;19921;-77
2022/01/09 10:52:26;;;;;;;;;;;4.60;99.90;;;;;;5026548;28;20328;-76
2022/01/09 10:54:57;;;;;;;;;;;4.60;99.90;;;;;;5025295;28;19913;-77
2022/01/09 10:57:23;;;;;;;;;;;4.60;99.90;;;;;;5031145;28;20028;-77
2022/01/09 10:59:50;;;;;;;;;;;4.50;99.90;;;;;;5031601;28;19913;-77
2022/01/09 11:02:16;;;;;;;;;;;4.40;99.90;;;;;;5030522;28;20006;-77
2022/01/09 11:04:43;;;;;;;;;;;4.40;99.90;;;;;;5030713;28;19992;-77
2022/01/09 11:07:09;;;;;;;;;;;4.50;99.90;;;;;;5030848;28;19923;-77
2022/01/09 11:09:36;;;;;;;;;;;4.50;99.90;;;;;;5029946;28;20366;-77
2022/01/09 11:12:04;;;;;;;;;;;4.60;99.90;;;;;;5030749;28;19924;-77
2022/01/09 11:14:35;;;;;;;;;;;4.90;99.90;;;;;;5030475;28;20331;-76
2022/01/09 11:17:03;;;;;;;;;;;4.90;99.90;;;;;;5028796;28;20399;-77
2022/01/09 11:19:29;;;;;;;;;;;4.80;99.90;;;;;;5030906;28;20032;-77
2022/01/09 11:22:02;;;;;;;;;;;4.80;99.90;;;;;;5028916;28;20313;-77
2022/01/09 11:24:38;;;;;;;;;;;4.80;99.90;;;;;;5026841;28;20000;-78
2022/01/09 11:27:10;;;;;;;;;;;4.80;99.90;;;;;;5028815;28;20325;-78
2022/01/09 11:29:41;;;;;;;;;;;4.40;99.90;;;;;;5029966;28;19925;-76
2022/01/09 11:32:08;;;;;;;;;;;4.60;99.90;;;;;;5029289;28;20206;-77
2022/01/09 11:34:43;;;;;;;;;;;4.70;99.90;;;;;;5032425;28;20296;-78
2022/01/09 11:37:17;;;;;;;;;;;4.80;99.90;;;;;;5028888;28;19916;-78
2022/01/09 11:39:43;;;;;;;;;;;4.90;99.90;;;;;;5031328;28;19968;-77
2022/01/09 11:42:11;;;;;;;;;;;5.00;99.90;;;;;;5030953;28;19913;-78
2022/01/09 11:44:45;;;;;;;;;;;5.00;99.90;;;;;;5031624;28;20343;-78
2022/01/09 11:47:11;;;;;;;;;;;5.00;99.90;;;;;;5030239;28;19913;-77
2022/01/09 11:49:38;;;;;;;;;;;4.90;99.90;;;;;;5029788;28;19968;-77
2022/01/09 11:52:04;;;;;;;;;;;5.10;99.90;;;;;;5032580;28;19914;-76
2022/01/09 11:54:46;;;;;;;;;;;5.20;99.90;;;;;;5030677;28;20027;-78
2022/01/09 11:57:18;;;;;;;;;;;5.10;99.90;;;;;;5031343;28;19953;-78
2022/01/09 11:59:51;;;;;;;;;;;5.30;99.90;;;;;;5029426;28;19919;-76
2022/01/09 12:02:18;;;;;;;;;;;5.50;99.90;;;;;;5030458;28;19967;-77
2022/01/09 12:04:45;;;;;;;;;;;5.40;99.90;;;;;;5029532;28;19914;-77
2022/01/09 12:07:12;;;;;;;;;;;5.50;99.90;;;;;;5030258;28;19920;-76
2022/01/09 12:09:37;;;;;;;;;;;5.60;99.90;;;;;;5030819;28;19929;-75
2022/01/09 12:12:03;;;;;;;;;;;6.00;99.90;;;;;;5030610;28;19960;-76
2022/01/09 12:14:44;;;;;;;;;;;6.30;99.90;;;;;;5034932;28;20364;-75
2022/01/09 12:17:28;;;;;;;;;;;6.50;99.90;;;;;;5033002;28;19913;-77
2022/01/09 12:20:17;;;;;;;;;;;6.60;99.90;;;;;;5031845;28;19957;-78
2022/01/09 12:22:46;;;;;;;;;;;6.70;99.90;;;;;;5031756;28;20315;-77
2022/01/09 12:25:28;;;;;;;;;;;6.70;99.90;;;;;;5029608;28;19913;-75
2022/01/09 12:28:02;;;;;;;;;;;6.50;99.90;;;;;;5030901;28;19917;-79
2022/01/09 12:30:36;;;;;;;;;;;6.30;99.90;;;;;;5031815;28;19921;-79
2022/01/09 12:33:06;;;;;;;;;;;6.30;99.90;;;;;;5033849;28;19952;-77
2022/01/09 12:35:32;;;;;;;;;;;6.40;99.90;;;;;;5032501;28;19919;-76
2022/01/09 12:38:01;;;;;;;;;;;6.30;99.90;;;;;;5032921;28;19917;-78
2022/01/09 12:40:27;;;;;;;;;;;6.40;99.90;;;;;;5030771;28;20280;-81
2022/01/09 12:42:54;;;;;;;;;;;6.30;99.90;;;;;;5032092;28;19921;-77
2022/01/09 12:45:20;;;;;;;;;;;6.10;99.90;;;;;;5033494;28;20256;-77
2022/01/09 12:47:46;;;;;;;;;;;6.20;99.90;;;;;;5031675;28;19982;-77
2022/01/09 12:50:12;;;;;;;;;;;6.10;99.90;;;;;;5033168;28;19925;-77
2022/01/09 12:52:37;;;;;;;;;;;6.10;99.90;;;;;;5032515;28;19917;-79
2022/01/09 12:55:07;;;;;;;;;;;6.10;99.90;;;;;;5031501;28;20286;-78
2022/01/09 12:57:49;;;;;;;;;;;6.00;99.90;;;;;;5033529;28;19913;-77
2022/01/09 13:00:15;;;;;;;;;;;5.90;99.90;;;;;;5029663;28;19944;-78
2022/01/09 13:02:40;;;;;;;;;;;5.70;99.90;;;;;;5031711;28;19956;-75
2022/01/09 13:05:06;;;;;;;;;;;5.80;99.90;;;;;;5032179;28;19957;-78
2022/01/09 13:07:32;;;;;;;;;;;5.80;99.90;;;;;;5027493;28;19920;-77
2022/01/09 13:09:57;;;;;;;;;;;5.90;99.90;;;;;;5030639;28;19929;-78
2022/01/09 13:12:23;;;;;;;;;;;5.90;99.90;;;;;;5030390;28;20692;-76
2022/01/09 13:14:49;;;;;;;;;;;5.80;99.90;;;;;;5031195;28;19913;-74
2022/01/09 13:17:17;;;;;;;;;;;5.80;99.90;;;;;;5031029;28;19970;-77
2022/01/09 13:19:42;;;;;;;;;;;5.90;99.90;;;;;;5030160;28;19949;-77
2022/01/09 13:22:10;;;;;;;;;;;5.80;99.90;;;;;;5033157;28;19960;-79
2022/01/09 13:24:35;;;;;;;;;;;5.70;99.90;;;;;;5028268;28;19927;-77
2022/01/09 13:27:02;;;;;;;;;;;5.70;99.90;;;;;;5032469;28;19913;-77
2022/01/09 13:29:30;;;;;;;;;;;5.80;99.90;;;;;;5030316;28;19921;-75
2022/01/09 13:31:57;;;;;;;;;;;5.70;99.90;;;;;;5029527;28;19971;-73
2022/01/09 13:34:36;;;;;;;;;;;5.60;99.90;;;;;;5029190;28;19920;-77
2022/01/09 13:37:07;;;;;;;;;;;5.60;99.90;;;;;;5028904;28;20513;-78
2022/01/09 13:39:33;;;;;;;;;;;5.60;99.90;;;;;;5030392;28;20268;-78
2022/01/09 13:42:00;;;;;;;;;;;5.50;99.90;;;;;;5030582;28;19928;-78
2022/01/09 13:44:27;;;;;;;;;;;5.30;99.90;;;;;;5032359;28;19974;-80
2022/01/09 13:47:02;;;;;;;;;;;5.30;99.90;;;;;;5029580;28;19920;-76
2022/01/09 13:49:28;;;;;;;;;;;5.10;99.90;;;;;;5030409;28;20299;-84
2022/01/09 13:51:54;;;;;;;;;;;5.10;99.90;;;;;;5029325;28;19913;-75
2022/01/09 13:54:21;;;;;;;;;;;5.10;99.90;;;;;;5030359;28;19913;-76
2022/01/09 13:57:00;;;;;;;;;;;5.10;99.90;;;;;;5031262;28;20253;-74
2022/01/09 13:59:35;;;;;;;;;;;5.10;99.90;;;;;;5027257;28;20016;-75
2022/01/09 14:02:01;;;;;;;;;;;5.10;99.90;;;;;;5029529;28;20356;-74
2022/01/09 14:04:26;;;;;;;;;;;5.30;99.90;;;;;;5029609;28;19943;-73
2022/01/09 14:07:02;;;;;;;;;;;5.20;99.90;;;;;;5032207;28;19957;-75
2022/01/09 14:09:29;;;;;;;;;;;5.10;99.90;;;;;;5031401;28;19947;-75
2022/01/09 14:11:56;;;;;;;;;;;5.10;99.90;;;;;;5032439;28;19917;-76
2022/01/09 14:14:28;;;;;;;;;;;5.00;99.90;;;;;;5026881;28;19913;-76
2022/01/09 14:16:54;;;;;;;;;;;5.10;99.90;;;;;;5028677;28;20304;-75
2022/01/09 14:19:20;;;;;;;;;;;5.00;99.90;;;;;;5030901;28;19913;-74
2022/01/09 14:21:54;;;;;;;;;;;5.00;99.90;;;;;;5030470;28;19917;-73
2022/01/09 14:24:20;;;;;;;;;;;5.00;99.90;;;;;;5027668;28;20254;-78
2022/01/09 14:26:57;;;;;;;;;;;5.00;99.90;;;;;;5030018;28;20001;-72
2022/01/09 14:29:43;;;;;;;;;;;5.00;99.90;;;;;;5030122;28;19928;-73